createdAt,value
2022-08-05T00:00:54.811Z,20.34
2022-08-05T00:01:56.727Z,20.32
2022-08-05T00:03:15.533Z,20.32
2022-08-05T00:04:18.106Z,20.30
2022-08-05T00:06:03.178Z,20.29
2022-08-05T00:06:51.729Z,20.25
2022-08-05T00:07:59.815Z,20.23
2022-08-05T00:09:12.781Z,20.19
2022-08-05T00:10:15.055Z,20.16
2022-08-05T00:11:20.550Z,20.12
2022-08-05T00:12:25.857Z,20.10
2022-08-05T00:13:38.368Z,20.07
2022-08-05T00:14:41.549Z,20.04
2022-08-05T00:15:58.146Z,20.01
2022-08-05T00:17:04.774Z,19.96
2022-08-05T00:18:22.788Z,19.91
2022-08-05T00:19:33.715Z,19.78
2022-08-05T00:20:42.511Z,19.77
2022-08-05T00:21:46.926Z,19.70
2022-08-05T00:22:57.423Z,19.63
2022-08-05T00:24:10.436Z,19.55
2022-08-05T00:25:13.146Z,19.48
2022-08-05T00:26:20.748Z,19.41
2022-08-05T00:27:35.795Z,19.33
2022-08-05T00:28:41.207Z,19.24
2022-08-05T00:29:45.672Z,19.19
2022-08-05T00:30:51.920Z,19.13
2022-08-05T00:32:12.220Z,19.05
2022-08-05T00:34:42.395Z,18.98
2022-08-05T00:35:03.867Z,18.97
2022-08-05T00:36:16.343Z,18.92
2022-08-05T00:37:50.721Z,18.93
2022-08-05T00:38:51.796Z,18.99
2022-08-05T00:39:58.625Z,19.03
2022-08-05T00:41:01.118Z,19.04
2022-08-05T00:42:05.631Z,19.06
2022-08-05T00:43:10.574Z,19.08
2022-08-05T00:44:20.894Z,19.06
2022-08-05T00:45:38.765Z,19.05
2022-08-05T00:46:47.539Z,19.06
2022-08-05T00:47:57.822Z,19.04
2022-08-05T00:49:10.232Z,19.04
2022-08-05T00:50:16.510Z,19.06
2022-08-05T00:51:51.100Z,19.08
2022-08-05T00:52:45.400Z,19.10
2022-08-05T00:54:02.681Z,19.11
2022-08-05T00:55:05.418Z,19.14
2022-08-05T00:56:09.956Z,19.16
2022-08-05T00:57:13.887Z,19.15
2022-08-05T00:58:19.577Z,19.16
2022-08-05T00:59:21.375Z,19.14
2022-08-05T01:00:25.870Z,19.12
2022-08-05T01:01:42.797Z,19.08
2022-08-05T01:02:52.484Z,19.06
2022-08-05T01:03:54.908Z,19.01
2022-08-05T01:04:59.307Z,18.97
2022-08-05T01:06:01.252Z,18.94
2022-08-05T01:07:07.082Z,18.91
2022-08-05T01:08:41.246Z,18.89
2022-08-05T01:09:40.126Z,18.87
2022-08-05T01:10:51.616Z,18.88
2022-08-05T01:11:59.753Z,18.88
2022-08-05T01:13:13.232Z,18.89
2022-08-05T01:14:28.410Z,18.90
2022-08-05T01:15:36.441Z,18.91
2022-08-05T01:16:46.923Z,18.93
2022-08-05T01:17:53.650Z,18.93
2022-08-05T01:19:00.880Z,18.92
2022-08-05T01:20:23.924Z,18.94
2022-08-05T01:21:38.170Z,18.95
2022-08-05T01:22:48.566Z,18.95
2022-08-05T01:23:58.148Z,18.95
2022-08-05T01:25:25.034Z,18.97
2022-08-05T01:27:17.939Z,18.97
2022-08-05T01:28:24.253Z,18.99
2022-08-05T01:29:31.699Z,18.99
2022-08-05T01:30:37.104Z,18.98
2022-08-05T01:31:45.163Z,18.98
2022-08-05T01:32:47.191Z,18.99
2022-08-05T01:33:53.593Z,18.98
2022-08-05T01:34:57.846Z,18.98
2022-08-05T01:36:02.682Z,18.96
2022-08-05T01:37:09.028Z,18.97
2022-08-05T01:38:24.584Z,18.98
2022-08-05T01:39:45.664Z,18.98
2022-08-05T01:40:49.217Z,18.95
2022-08-05T01:41:54.077Z,18.94
2022-08-05T01:42:56.082Z,18.95
2022-08-05T01:44:00.470Z,18.94
2022-08-05T01:45:03.191Z,18.93
2022-08-05T01:46:16.633Z,18.94
2022-08-05T01:47:39.406Z,18.94
2022-08-05T01:48:41.856Z,18.95
2022-08-05T01:50:01.641Z,18.96
2022-08-05T01:51:08.703Z,18.96
2022-08-05T01:52:18.074Z,18.98
2022-08-05T01:53:54.640Z,18.97
2022-08-05T01:54:52.008Z,18.97
2022-08-05T01:55:55.667Z,18.96
2022-08-05T01:58:10.982Z,18.97
2022-08-05T01:58:40.724Z,18.97
2022-08-05T01:59:49.360Z,18.96
2022-08-05T02:00:51.470Z,18.95
2022-08-05T02:01:56.290Z,18.94
2022-08-05T02:03:03.670Z,18.93
2022-08-05T02:04:08.299Z,18.93
2022-08-05T02:05:12.610Z,18.92
2022-08-05T02:06:37.345Z,18.92
2022-08-05T02:07:40.099Z,18.90
2022-08-05T02:08:54.753Z,18.90
2022-08-05T02:10:00.593Z,18.92
2022-08-05T02:11:08.443Z,18.90
2022-08-05T02:12:19.734Z,18.90
2022-08-05T02:13:28.513Z,18.89
2022-08-05T02:14:55.864Z,18.87
2022-08-05T02:16:02.425Z,18.88
2022-08-05T02:17:08.533Z,18.88
2022-08-05T02:18:32.320Z,18.87
2022-08-05T02:19:47.010Z,18.86
2022-08-05T02:20:58.815Z,18.86
2022-08-05T02:22:25.733Z,18.86
2022-08-05T02:23:33.484Z,18.86
2022-08-05T02:24:39.794Z,18.85
2022-08-05T02:25:49.355Z,18.84
2022-08-05T02:26:56.120Z,18.84
2022-08-05T02:28:00.370Z,18.84
2022-08-05T02:29:05.046Z,18.84
2022-08-05T02:30:07.297Z,18.83
2022-08-05T02:31:15.223Z,18.85
2022-08-05T02:32:24.064Z,18.81
2022-08-05T02:33:38.592Z,18.83
2022-08-05T02:34:43.666Z,18.86
2022-08-05T02:35:59.100Z,18.87
2022-08-05T02:37:06.909Z,18.89
2022-08-05T02:38:09.696Z,18.89
2022-08-05T02:39:14.277Z,18.92
2022-08-05T02:40:19.010Z,18.95
2022-08-05T02:41:29.003Z,18.94
2022-08-05T02:42:38.322Z,18.93
2022-08-05T02:44:06.378Z,18.92
2022-08-05T02:45:07.423Z,18.92
2022-08-05T02:46:09.222Z,18.89
2022-08-05T02:47:21.171Z,18.88
2022-08-05T02:48:29.488Z,18.86
2022-08-05T02:49:35.984Z,18.85
2022-08-05T02:50:39.155Z,18.81
2022-08-05T02:52:03.483Z,18.80
2022-08-05T02:53:06.788Z,18.78
2022-08-05T02:54:36.431Z,18.78
2022-08-05T02:55:53.940Z,18.76
2022-08-05T02:57:03.130Z,18.76
2022-08-05T02:58:10.222Z,18.75
2022-08-05T02:59:17.220Z,18.76
2022-08-05T03:00:20.375Z,18.76
2022-08-05T03:01:28.117Z,18.75
2022-08-05T03:02:30.706Z,18.75
2022-08-05T03:04:04.248Z,18.78
2022-08-05T03:04:58.007Z,18.69
2022-08-05T03:06:54.185Z,18.77
2022-08-05T03:07:40.553Z,18.81
2022-08-05T03:08:49.103Z,18.84
2022-08-05T03:09:56.956Z,18.88
2022-08-05T03:11:54.694Z,18.89
2022-08-05T03:12:32.202Z,18.89
2022-08-05T03:13:51.606Z,18.88
2022-08-05T03:14:58.722Z,18.92
2022-08-05T03:16:00.532Z,18.93
2022-08-05T03:17:08.980Z,18.96
2022-08-05T03:18:10.968Z,18.98
2022-08-05T03:19:20.347Z,18.99
2022-08-05T03:20:36.112Z,19.02
2022-08-05T03:21:41.324Z,19.04
2022-08-05T03:22:50.615Z,19.08
2022-08-05T03:23:55.217Z,19.10
2022-08-05T03:24:58.362Z,19.10
2022-08-05T03:26:30.082Z,19.13
2022-08-05T03:27:59.074Z,19.16
2022-08-05T03:28:58.447Z,19.22
2022-08-05T03:30:08.377Z,19.26
2022-08-05T03:31:18.318Z,19.28
2022-08-05T03:32:35.316Z,19.34
2022-08-05T03:33:50.956Z,19.38
2022-08-05T03:34:54.690Z,19.43
2022-08-05T03:35:59.761Z,19.49
2022-08-05T03:37:05.349Z,19.57
2022-08-05T03:38:07.351Z,19.68
2022-08-05T03:39:13.073Z,19.77
2022-08-05T03:40:31.257Z,19.82
2022-08-05T03:41:38.808Z,19.85
2022-08-05T03:42:52.437Z,20.13
2022-08-05T03:44:08.367Z,20.84
2022-08-05T03:45:21.618Z,21.79
2022-08-05T03:46:29.990Z,22.50
2022-08-05T03:47:35.576Z,23.11
2022-08-05T03:48:46.776Z,23.68
2022-08-05T03:49:51.388Z,24.17
2022-08-05T03:52:39.201Z,24.67
2022-08-05T03:55:34.272Z,25.37
2022-08-05T03:55:54.209Z,26.05
2022-08-05T03:56:11.002Z,26.62
2022-08-05T03:57:17.907Z,27.10
2022-08-05T03:58:19.881Z,27.46
2022-08-05T03:59:47.080Z,27.79
2022-08-05T04:00:53.840Z,28.22
2022-08-05T04:01:58.918Z,28.55
2022-08-05T04:03:02.897Z,28.86
2022-08-05T04:04:10.829Z,29.21
2022-08-05T04:05:13.011Z,29.51
2022-08-05T04:06:18.159Z,29.76
2022-08-05T04:07:25.651Z,30.04
2022-08-05T04:08:36.353Z,30.28
2022-08-05T04:09:53.074Z,30.54
2022-08-05T04:10:56.219Z,30.82
2022-08-05T04:12:01.862Z,31.05
2022-08-05T04:13:04.498Z,31.30
2022-08-05T04:14:09.228Z,31.57
2022-08-05T04:15:19.799Z,31.85
2022-08-05T04:16:32.344Z,32.12
2022-08-05T04:17:55.714Z,32.40
2022-08-05T04:19:00.184Z,32.73
2022-08-05T04:20:02.518Z,32.93
2022-08-05T04:21:07.290Z,33.13
2022-08-05T04:22:13.091Z,33.34
2022-08-05T04:24:05.273Z,33.54
2022-08-05T04:24:52.920Z,33.86
2022-08-05T04:26:00.272Z,34.08
2022-08-05T04:27:05.374Z,34.26
2022-08-05T04:28:11.283Z,34.45
2022-08-05T04:29:17.195Z,34.61
2022-08-05T04:30:18.986Z,34.75
2022-08-05T04:31:27.620Z,34.91
2022-08-05T04:32:40.541Z,35.04
2022-08-05T04:34:18.048Z,35.13
2022-08-05T04:35:17.748Z,35.29
2022-08-05T04:36:49.390Z,35.38
2022-08-05T04:38:02.738Z,35.49
2022-08-05T04:39:10.498Z,35.58
2022-08-05T04:40:14.953Z,35.71
2022-08-05T04:41:37.089Z,35.69
2022-08-05T04:42:40.669Z,35.82
2022-08-05T04:43:48.023Z,35.98
2022-08-05T04:44:53.911Z,36.07
2022-08-05T04:45:58.373Z,36.16
2022-08-05T04:47:09.589Z,36.25
2022-08-05T04:48:18.519Z,36.33
2022-08-05T04:50:01.147Z,36.38
2022-08-05T04:51:02.753Z,36.39
2022-08-05T04:52:06.165Z,36.37
2022-08-05T04:53:13.062Z,36.34
2022-08-05T04:54:15.839Z,36.29
2022-08-05T04:56:05.048Z,36.21
2022-08-05T04:56:44.590Z,36.06
2022-08-05T04:57:47.863Z,36.00
2022-08-05T04:58:56.090Z,35.89
2022-08-05T04:59:58.443Z,35.75
2022-08-05T05:01:03.355Z,35.58
2022-08-05T05:02:36.260Z,35.29
2022-08-05T05:03:41.705Z,34.59
2022-08-05T05:04:49.682Z,33.09
2022-08-05T05:06:39.568Z,31.87
2022-08-05T05:07:23.999Z,30.77
2022-08-05T05:08:33.824Z,30.06
2022-08-05T05:09:35.595Z,29.54
2022-08-05T05:10:55.824Z,29.12
2022-08-05T05:12:02.803Z,28.61
2022-08-05T05:13:07.537Z,28.27
2022-08-05T05:14:09.533Z,27.93
2022-08-05T05:15:56.116Z,27.64
2022-08-05T05:16:42.462Z,27.27
2022-08-05T05:17:56.898Z,27.06
2022-08-05T05:19:18.768Z,26.81
2022-08-05T05:20:23.864Z,26.59
2022-08-05T05:21:33.274Z,26.43
2022-08-05T05:22:35.366Z,26.29
2022-08-05T05:24:02.155Z,26.12
2022-08-05T05:25:16.374Z,25.98
2022-08-05T05:26:28.689Z,25.84
2022-08-05T05:27:44.776Z,25.74
2022-08-05T05:28:50.401Z,25.64
2022-08-05T05:30:04.272Z,25.59
2022-08-05T05:31:09.719Z,25.51
2022-08-05T05:32:12.720Z,25.46
2022-08-05T05:33:23.257Z,25.43
2022-08-05T05:34:26.950Z,25.41
2022-08-05T05:35:37.639Z,25.37
2022-08-05T05:36:40.043Z,25.34
2022-08-05T05:37:59.593Z,25.32
2022-08-05T05:39:03.814Z,25.31
2022-08-05T05:40:09.322Z,25.30
2022-08-05T05:41:14.253Z,25.32
2022-08-05T05:42:20.916Z,25.30
2022-08-05T05:43:54.828Z,25.29
2022-08-05T05:44:47.552Z,25.29
2022-08-05T05:45:49.639Z,25.30
2022-08-05T05:46:54.066Z,25.29
2022-08-05T05:48:06.035Z,25.32
2022-08-05T05:49:22.624Z,25.21
2022-08-05T05:50:25.880Z,25.36
2022-08-05T05:51:30.314Z,25.36
2022-08-05T05:52:51.948Z,25.33
2022-08-05T05:53:59.534Z,25.36
2022-08-05T05:55:07.388Z,25.34
2022-08-05T05:56:26.235Z,25.41
2022-08-05T05:57:42.861Z,25.41
2022-08-05T05:58:56.831Z,25.42
2022-08-05T06:00:06.353Z,25.44
2022-08-05T06:01:17.413Z,25.47
2022-08-05T06:02:32.685Z,25.43
2022-08-05T06:04:01.285Z,25.49
2022-08-05T06:05:04.074Z,25.55
2022-08-05T06:06:15.055Z,25.51
2022-08-05T06:07:16.995Z,25.63
2022-08-05T06:08:31.587Z,25.64
2022-08-05T06:09:52.633Z,25.65
2022-08-05T06:10:59.364Z,25.70
2022-08-05T06:12:02.901Z,25.73
2022-08-05T06:13:07.834Z,25.76
2022-08-05T06:14:10.492Z,25.71
2022-08-05T06:15:23.996Z,25.78
2022-08-05T06:16:28.518Z,25.81
2022-08-05T06:17:53.360Z,25.83
2022-08-05T06:18:55.963Z,25.89
2022-08-05T06:20:04.660Z,25.89
2022-08-05T06:21:07.907Z,25.94
2022-08-05T06:22:27.906Z,25.98
2022-08-05T06:23:44.214Z,26.02
2022-08-05T06:24:48.296Z,26.06
2022-08-05T06:26:12.269Z,26.10
2022-08-05T06:28:11.762Z,26.13
2022-08-05T06:28:43.709Z,26.17
2022-08-05T06:30:02.659Z,26.19
2022-08-05T06:31:18.026Z,26.22
2022-08-05T06:32:25.931Z,26.26
2022-08-05T06:34:08.045Z,26.28
2022-08-05T06:34:56.306Z,26.33
2022-08-05T06:36:05.664Z,26.37
2022-08-05T06:37:11.240Z,26.35
2022-08-05T06:38:16.834Z,26.45
2022-08-05T06:39:18.693Z,26.45
2022-08-05T06:40:28.039Z,26.49
2022-08-05T06:41:34.708Z,26.51
2022-08-05T06:42:44.974Z,26.56
2022-08-05T06:43:57.714Z,26.60
2022-08-05T06:45:05.586Z,26.69
2022-08-05T06:46:13.407Z,26.73
2022-08-05T06:48:11.633Z,26.77
2022-08-05T06:48:54.766Z,26.77
2022-08-05T06:50:05.388Z,26.84
2022-08-05T06:51:09.575Z,26.87
2022-08-05T06:52:36.599Z,26.90
2022-08-05T06:53:39.517Z,26.95
2022-08-05T06:54:41.456Z,26.98
2022-08-05T06:55:46.027Z,27.01
2022-08-05T06:56:54.968Z,27.05
2022-08-05T06:58:29.203Z,27.08
2022-08-05T06:59:38.729Z,27.12
2022-08-05T07:00:44.122Z,27.16
2022-08-05T07:01:49.165Z,27.19
2022-08-05T07:02:54.946Z,27.16
2022-08-05T07:03:59.345Z,27.17
2022-08-05T07:05:01.269Z,27.25
2022-08-05T07:06:14.347Z,27.29
2022-08-05T07:07:35.245Z,27.24
2022-08-05T07:08:47.306Z,27.36
2022-08-05T07:09:55.651Z,27.39
2022-08-05T07:11:00.385Z,27.42
2022-08-05T07:12:06.567Z,27.44
2022-08-05T07:13:57.052Z,27.49
2022-08-05T07:15:00.657Z,27.52
2022-08-05T07:17:57.180Z,27.57
2022-08-05T07:18:01.903Z,27.61
2022-08-05T07:19:06.591Z,27.64
2022-08-05T07:22:00.585Z,27.69
2022-08-05T07:23:00.921Z,27.72
2022-08-05T07:24:02.763Z,27.74
2022-08-05T07:25:21.956Z,27.73
2022-08-05T07:26:25.981Z,27.79
2022-08-05T07:27:58.047Z,27.85
2022-08-05T07:28:55.494Z,27.91
2022-08-05T07:30:22.190Z,27.93
2022-08-05T07:31:40.870Z,27.96
2022-08-05T07:32:53.337Z,28.00
2022-08-05T07:33:59.920Z,28.02
2022-08-05T07:36:03.319Z,27.96
2022-08-05T07:36:26.136Z,28.01
2022-08-05T07:37:36.057Z,28.02
2022-08-05T07:38:44.204Z,28.06
2022-08-05T07:40:26.933Z,28.12
2022-08-05T07:41:35.092Z,28.18
2022-08-05T07:42:36.382Z,28.23
2022-08-05T07:43:38.371Z,28.29
2022-08-05T07:44:43.227Z,28.34
2022-08-05T07:45:57.613Z,28.39
2022-08-05T07:47:06.210Z,28.41
2022-08-05T07:48:11.091Z,28.46
2022-08-05T07:49:18.170Z,28.51
2022-08-05T07:50:24.979Z,28.53
2022-08-05T07:51:52.830Z,28.55
2022-08-05T07:52:56.163Z,28.59
2022-08-05T07:54:01.908Z,28.61
2022-08-05T07:55:03.937Z,28.62
2022-08-05T07:57:00.691Z,28.63
2022-08-05T07:58:02.446Z,28.68
2022-08-05T07:59:04.843Z,28.70
2022-08-05T08:00:14.536Z,28.72
2022-08-05T08:01:16.874Z,28.75
2022-08-05T08:02:30.976Z,28.76
2022-08-05T08:03:52.067Z,28.77
2022-08-05T08:04:54.222Z,28.77
2022-08-05T08:05:58.618Z,28.70
2022-08-05T08:07:01.050Z,28.79
2022-08-05T08:08:12.335Z,28.74
2022-08-05T08:09:14.377Z,28.86
2022-08-05T08:10:20.543Z,28.90
2022-08-05T08:11:27.564Z,28.92
2022-08-05T08:12:49.269Z,28.94
2022-08-05T08:14:00.839Z,28.97
2022-08-05T08:15:04.535Z,29.00
2022-08-05T08:16:35.755Z,29.05
2022-08-05T08:17:35.389Z,28.95
2022-08-05T08:18:37.493Z,29.11
2022-08-05T08:20:22.360Z,29.09
2022-08-05T08:21:09.818Z,29.15
2022-08-05T08:22:19.464Z,29.14
2022-08-05T08:24:02.054Z,29.19
2022-08-05T08:24:51.863Z,29.24
2022-08-05T08:26:00.560Z,29.26
2022-08-05T08:27:07.428Z,29.30
2022-08-05T08:28:18.120Z,29.30
2022-08-05T08:30:04.571Z,29.33
2022-08-05T08:30:50.063Z,29.36
2022-08-05T08:31:54.623Z,29.38
2022-08-05T08:32:56.431Z,29.38
2022-08-05T08:34:01.683Z,29.38
2022-08-05T08:35:03.645Z,29.39
2022-08-05T08:36:39.188Z,29.36
2022-08-05T08:37:36.693Z,29.38
2022-08-05T08:38:38.525Z,29.39
2022-08-05T08:39:49.555Z,29.31
2022-08-05T08:40:54.223Z,29.34
2022-08-05T08:42:00.127Z,29.36
2022-08-05T08:44:55.737Z,29.38
2022-08-05T08:45:19.289Z,29.44
2022-08-05T08:45:59.493Z,29.48
2022-08-05T08:47:02.262Z,29.51
2022-08-05T08:48:23.174Z,29.52
2022-08-05T08:50:07.740Z,29.56
2022-08-05T08:51:22.225Z,29.60
2022-08-05T08:52:17.858Z,29.65
2022-08-05T08:53:22.245Z,29.71
2022-08-05T08:54:27.422Z,29.76
2022-08-05T08:56:04.215Z,29.81
2022-08-05T08:56:54.049Z,29.86
2022-08-05T08:58:01.883Z,29.89
2022-08-05T08:59:14.651Z,29.94
2022-08-05T09:00:23.827Z,29.97
2022-08-05T09:01:28.178Z,30.01
2022-08-05T09:02:33.682Z,30.04
2022-08-05T09:03:40.631Z,30.08
2022-08-05T09:05:16.093Z,30.12
2022-08-05T09:06:17.198Z,30.18
2022-08-05T09:07:29.001Z,30.24
2022-08-05T09:08:33.674Z,30.28
2022-08-05T09:09:35.904Z,30.31
2022-08-05T09:10:46.926Z,30.34
2022-08-05T09:11:52.141Z,30.39
2022-08-05T09:13:04.518Z,30.43
2022-08-05T09:14:54.257Z,30.47
2022-08-05T09:15:31.359Z,30.51
2022-08-05T09:16:33.226Z,30.54
2022-08-05T09:17:42.881Z,30.54
2022-08-05T09:18:50.450Z,30.56
2022-08-05T09:19:55.061Z,30.53
2022-08-05T09:21:11.525Z,30.55
2022-08-05T09:22:31.375Z,30.55
2022-08-05T09:23:43.597Z,30.56
2022-08-05T09:24:56.936Z,30.55
2022-08-05T09:26:20.604Z,30.56
2022-08-05T09:28:04.817Z,30.58
2022-08-05T09:28:56.217Z,30.61
2022-08-05T09:30:01.216Z,30.63
2022-08-05T09:31:43.881Z,30.65
2022-08-05T09:32:46.602Z,30.64
2022-08-05T09:33:52.175Z,30.62
2022-08-05T09:34:56.311Z,30.62
2022-08-05T09:36:11.895Z,30.59
2022-08-05T09:38:12.454Z,30.57
2022-08-05T09:38:59.136Z,30.59
2022-08-05T09:40:01.035Z,30.56
2022-08-05T09:41:06.853Z,30.60
2022-08-05T09:42:13.611Z,30.64
2022-08-05T09:43:41.959Z,30.65
2022-08-05T09:44:50.474Z,30.67
2022-08-05T09:46:06.525Z,30.67
2022-08-05T09:47:17.026Z,30.67
2022-08-05T09:48:26.911Z,30.59
2022-08-05T09:49:54.497Z,30.52
2022-08-05T09:51:00.573Z,30.53
2022-08-05T09:52:16.704Z,30.41
2022-08-05T09:53:23.044Z,30.45
2022-08-05T09:54:31.337Z,30.49
2022-08-05T09:55:56.773Z,30.50
2022-08-05T09:57:03.189Z,30.46
2022-08-05T09:58:25.150Z,30.42
2022-08-05T09:59:27.929Z,30.45
2022-08-05T10:00:35.135Z,30.28
2022-08-05T10:01:45.843Z,30.36
2022-08-05T10:02:51.702Z,30.36
2022-08-05T10:04:00.142Z,30.40
2022-08-05T10:05:32.946Z,30.43
2022-08-05T10:06:35.333Z,30.44
2022-08-05T10:08:10.576Z,30.36
2022-08-05T10:09:27.772Z,30.49
2022-08-05T10:10:40.694Z,30.54
2022-08-05T10:11:46.425Z,30.55
2022-08-05T10:12:51.203Z,30.58
2022-08-05T10:13:57.422Z,30.58
2022-08-05T10:15:16.961Z,30.58
2022-08-05T10:16:52.471Z,30.58
2022-08-05T10:18:20.288Z,30.58
2022-08-05T10:19:31.951Z,30.58
2022-08-05T10:20:59.874Z,30.61
2022-08-05T10:22:09.004Z,30.51
2022-08-05T10:23:34.677Z,30.63
2022-08-05T10:24:46.159Z,30.56
2022-08-05T10:25:52.566Z,30.51
2022-08-05T10:27:00.543Z,30.55
2022-08-05T10:28:13.551Z,30.57
2022-08-05T10:30:07.230Z,30.57
2022-08-05T10:32:52.800Z,30.62
2022-08-05T10:33:02.200Z,30.56
2022-08-05T10:33:39.305Z,30.67
2022-08-05T10:34:41.721Z,30.69
2022-08-05T10:35:52.370Z,30.71
2022-08-05T10:37:04.484Z,30.69
2022-08-05T10:38:08.430Z,30.72
2022-08-05T10:39:24.804Z,30.75
2022-08-05T10:40:58.207Z,30.79
2022-08-05T10:42:22.751Z,30.81
2022-08-05T10:43:57.048Z,30.77
2022-08-05T10:45:01.173Z,30.78
2022-08-05T10:46:10.557Z,30.80
2022-08-05T10:47:26.069Z,30.85
2022-08-05T10:48:56.381Z,30.88
2022-08-05T10:50:20.678Z,30.92
2022-08-05T10:51:28.859Z,30.97
2022-08-05T10:52:49.845Z,30.92
2022-08-05T10:53:54.498Z,30.98
2022-08-05T10:55:03.668Z,31.03
2022-08-05T10:56:21.405Z,31.07
2022-08-05T10:57:31.780Z,31.11
2022-08-05T10:58:48.690Z,31.12
2022-08-05T11:00:18.162Z,31.12
2022-08-05T11:01:55.471Z,31.12
2022-08-05T11:03:10.002Z,31.14
2022-08-05T11:04:31.712Z,31.14
2022-08-05T11:05:36.572Z,31.10
2022-08-05T11:07:00.598Z,31.10
2022-08-05T11:08:21.689Z,31.09
2022-08-05T11:09:39.475Z,31.05
2022-08-05T11:11:00.997Z,31.08
2022-08-05T11:12:10.975Z,31.08
2022-08-05T11:13:27.600Z,31.11
2022-08-05T11:15:19.026Z,31.16
2022-08-05T11:16:01.904Z,31.17
2022-08-05T11:17:59.623Z,31.18
2022-08-05T11:18:47.252Z,31.21
2022-08-05T11:20:10.821Z,31.24
2022-08-05T11:21:40.785Z,31.26
2022-08-05T11:22:54.125Z,31.27
2022-08-05T11:24:14.771Z,31.31
2022-08-05T11:26:04.686Z,31.33
2022-08-05T11:27:18.959Z,31.38
2022-08-05T11:28:20.749Z,31.38
2022-08-05T11:29:37.687Z,31.28
2022-08-05T11:31:01.622Z,31.30
2022-08-05T11:32:27.423Z,31.35
2022-08-05T11:33:44.032Z,31.37
2022-08-05T11:34:54.380Z,31.40
2022-08-05T11:36:07.969Z,31.45
2022-08-05T11:38:26.694Z,31.51
2022-08-05T11:38:51.847Z,31.56
2022-08-05T11:40:03.440Z,31.61
2022-08-05T11:41:35.021Z,31.64
2022-08-05T11:42:37.825Z,31.67
2022-08-05T11:44:04.462Z,31.69
2022-08-05T11:45:23.556Z,31.73
2022-08-05T11:46:37.556Z,31.76
2022-08-05T11:47:49.763Z,31.72
2022-08-05T11:48:52.724Z,31.67
2022-08-05T11:50:03.411Z,31.65
2022-08-05T11:51:05.217Z,31.67
2022-08-05T11:52:11.890Z,31.68
2022-08-05T11:53:13.839Z,31.62
2022-08-05T11:54:35.017Z,31.65
2022-08-05T11:55:37.004Z,31.66
2022-08-05T11:56:54.230Z,31.69
2022-08-05T11:58:10.719Z,31.67
2022-08-05T11:59:21.381Z,31.69
2022-08-05T12:00:30.250Z,31.71
2022-08-05T12:01:32.379Z,31.74
2022-08-05T12:02:40.105Z,31.78
2022-08-05T12:03:43.315Z,31.74
2022-08-05T12:05:00.847Z,31.89
2022-08-05T12:06:05.796Z,31.95
2022-08-05T12:07:11.308Z,32.00
2022-08-05T12:08:18.264Z,32.05
2022-08-05T12:09:38.630Z,32.12
2022-08-05T12:10:49.287Z,32.16
2022-08-05T12:11:53.552Z,32.23
2022-08-05T12:12:59.550Z,32.27
2022-08-05T12:14:05.421Z,32.30
2022-08-05T12:15:12.843Z,32.31
2022-08-05T12:16:19.455Z,32.33
2022-08-05T12:18:02.534Z,32.32
2022-08-05T12:18:49.061Z,32.35
2022-08-05T12:20:26.289Z,32.37
2022-08-05T12:21:30.619Z,32.41
2022-08-05T12:22:36.278Z,32.46
2022-08-05T12:23:51.634Z,32.43
2022-08-05T12:24:56.223Z,32.41
2022-08-05T12:25:58.065Z,32.45
2022-08-05T12:27:09.482Z,32.45
2022-08-05T12:28:11.802Z,32.48
2022-08-05T12:29:23.027Z,32.48
2022-08-05T12:30:32.083Z,32.47
2022-08-05T12:31:43.480Z,32.46
2022-08-05T12:32:53.665Z,32.47
2022-08-05T12:33:58.424Z,32.49
2022-08-05T12:35:03.924Z,32.52
2022-08-05T12:36:08.619Z,32.54
2022-08-05T12:37:17.555Z,32.55
2022-08-05T12:38:23.645Z,32.55
2022-08-05T12:39:38.500Z,32.58
2022-08-05T12:40:43.618Z,32.59
2022-08-05T12:41:50.129Z,32.62
2022-08-05T12:42:59.867Z,32.58
2022-08-05T12:44:28.500Z,32.60
2022-08-05T12:45:49.592Z,32.55
2022-08-05T12:46:55.395Z,32.52
2022-08-05T12:48:17.190Z,32.51
2022-08-05T12:49:25.556Z,32.49
2022-08-05T12:50:30.978Z,32.46
2022-08-05T12:52:13.552Z,32.45
2022-08-05T12:53:01.347Z,32.46
2022-08-05T12:54:03.908Z,32.50
2022-08-05T12:55:28.270Z,32.52
2022-08-05T12:56:35.114Z,32.56
2022-08-05T12:58:49.881Z,32.58
2022-08-05T12:59:21.110Z,32.63
2022-08-05T13:02:00.628Z,32.66
2022-08-05T13:02:10.051Z,32.68
2022-08-05T13:03:13.488Z,32.68
2022-08-05T13:04:21.304Z,32.67
2022-08-05T13:05:24.042Z,32.72
2022-08-05T13:06:29.327Z,32.74
2022-08-05T13:07:59.415Z,32.77
2022-08-05T13:08:57.838Z,32.77
2022-08-05T13:10:04.758Z,32.72
2022-08-05T13:11:07.012Z,32.60
2022-08-05T13:12:13.260Z,32.68
2022-08-05T13:14:06.559Z,32.71
2022-08-05T13:14:46.966Z,32.77
2022-08-05T13:16:12.146Z,32.83
2022-08-05T13:17:31.572Z,32.87
2022-08-05T13:18:53.014Z,32.92
2022-08-05T13:20:02.243Z,32.96
2022-08-05T13:21:04.739Z,33.01
2022-08-05T13:22:09.338Z,33.06
2022-08-05T13:23:14.061Z,33.09
2022-08-05T13:24:36.594Z,33.12
2022-08-05T13:25:52.502Z,33.11
2022-08-05T13:27:01.039Z,33.10
2022-08-05T13:28:06.888Z,32.99
2022-08-05T13:29:12.687Z,33.03
2022-08-05T13:30:35.365Z,33.03
2022-08-05T13:32:04.100Z,33.02
2022-08-05T13:33:07.995Z,33.05
2022-08-05T13:34:21.798Z,33.05
2022-08-05T13:35:42.837Z,33.05
2022-08-05T13:36:52.127Z,33.00
2022-08-05T13:37:55.460Z,32.97
2022-08-05T13:39:00.370Z,32.96
2022-08-05T13:40:14.424Z,32.86
2022-08-05T13:41:19.126Z,32.85
2022-08-05T13:42:27.146Z,32.83
2022-08-05T13:43:43.400Z,32.80
2022-08-05T13:44:50.654Z,32.78
2022-08-05T13:45:52.479Z,32.78
2022-08-05T13:47:04.538Z,32.81
2022-08-05T13:48:09.537Z,32.84
2022-08-05T13:49:31.331Z,32.86
2022-08-05T13:50:37.253Z,32.90
2022-08-05T13:51:46.059Z,32.96
2022-08-05T13:52:50.027Z,32.99
2022-08-05T13:53:57.946Z,33.01
2022-08-05T13:55:02.453Z,33.05
2022-08-05T13:56:18.099Z,33.06
2022-08-05T13:57:24.381Z,33.08
2022-08-05T13:58:30.694Z,33.11
2022-08-05T13:59:35.831Z,33.15
2022-08-05T14:00:37.759Z,33.16
2022-08-05T14:01:46.476Z,33.18
2022-08-05T14:03:01.549Z,33.22
2022-08-05T14:04:18.679Z,33.26
2022-08-05T14:05:48.060Z,33.30
2022-08-05T14:06:47.594Z,33.32
2022-08-05T14:08:00.138Z,33.32
2022-08-05T14:09:08.519Z,33.32
2022-08-05T14:10:28.960Z,33.33
2022-08-05T14:12:04.440Z,33.27
2022-08-05T14:13:03.574Z,33.31
2022-08-05T14:14:08.882Z,33.31
2022-08-05T14:16:04.742Z,33.32
2022-08-05T14:16:35.721Z,33.32
2022-08-05T14:17:37.494Z,33.34
2022-08-05T14:18:41.950Z,33.35
2022-08-05T14:19:55.925Z,33.34
2022-08-05T14:22:07.295Z,33.35
2022-08-05T14:22:30.345Z,33.33
2022-08-05T14:23:38.627Z,33.30
2022-08-05T14:24:40.461Z,33.30
2022-08-05T14:25:45.726Z,33.24
2022-08-05T14:27:08.417Z,33.23
2022-08-05T14:28:16.010Z,33.21
2022-08-05T14:29:31.863Z,33.22
2022-08-05T14:30:36.245Z,33.19
2022-08-05T14:32:02.999Z,33.18
2022-08-05T14:33:03.566Z,33.18
2022-08-05T14:34:07.389Z,33.18
2022-08-05T14:35:20.702Z,33.19
2022-08-05T14:36:27.696Z,33.19
2022-08-05T14:37:45.219Z,33.17
2022-08-05T14:38:53.013Z,33.17
2022-08-05T14:39:57.032Z,33.19
2022-08-05T14:41:06.321Z,33.23
2022-08-05T14:42:29.468Z,33.27
2022-08-05T14:44:02.168Z,33.29
2022-08-05T14:44:58.251Z,33.33
2022-08-05T14:46:01.343Z,33.37
2022-08-05T14:47:05.954Z,33.39
2022-08-05T14:48:10.686Z,33.42
2022-08-05T14:49:59.083Z,33.46
2022-08-05T14:50:59.690Z,33.48
2022-08-05T14:52:05.218Z,33.47
2022-08-05T14:53:15.207Z,33.43
2022-08-05T14:54:30.113Z,33.44
2022-08-05T14:55:39.306Z,33.41
2022-08-05T14:56:46.612Z,33.42
2022-08-05T14:57:54.352Z,33.44
2022-08-05T14:58:58.357Z,33.34
2022-08-05T15:00:02.776Z,33.46
2022-08-05T15:01:04.772Z,33.47
2022-08-05T15:02:20.112Z,33.52
2022-08-05T15:03:22.951Z,33.56
2022-08-05T15:04:29.137Z,33.58
2022-08-05T15:06:08.209Z,33.59
2022-08-05T15:06:55.694Z,33.62
2022-08-05T15:08:06.003Z,33.63
2022-08-05T15:09:51.116Z,33.66
2022-08-05T15:10:48.261Z,33.65
2022-08-05T15:11:52.656Z,33.66
2022-08-05T15:13:03.954Z,33.62
2022-08-05T15:14:06.463Z,33.58
2022-08-05T15:15:15.548Z,33.51
2022-08-05T15:16:17.608Z,33.51
2022-08-05T15:17:46.684Z,33.45
2022-08-05T15:18:47.403Z,33.42
2022-08-05T15:19:49.293Z,33.39
2022-08-05T15:21:07.590Z,33.35
2022-08-05T15:22:09.843Z,33.33
2022-08-05T15:23:14.531Z,33.29
2022-08-05T15:24:16.390Z,33.24